Time;durP1;ratioP1;P1;durP2;ratioP2;P2;SDS_P1;SDS_P2;PMS_P1;PMS_P2;Temp;Humidity;BMP_temperature;BMP_pressure;BME280_temperature;BME280_humidity;BME280_pressure;Samples;Min_cycle;Max_cycle;Signal;HPM_P1;HPM_P2
2023/07/09 00:01:06;;;;;;;5.20;4.67;;;24.40;85.40;;;;;;4971604;28;20538;-65
2023/07/09 00:03:33;;;;;;;6.40;4.80;;;24.40;85.40;;;;;;4971025;28;20486;-66
2023/07/09 00:06:00;;;;;;;5.33;4.77;;;24.40;85.60;;;;;;4972049;28;20488;-66
2023/07/09 00:08:29;;;;;;;5.57;5.07;;;24.40;86.20;;;;;;4971945;28;20465;-64
2023/07/09 00:10:58;;;;;;;5.23;4.73;;;24.20;86.40;;;;;;4979798;28;20569;-65
2023/07/09 00:13:27;;;;;;;4.97;4.50;;;24.20;87.00;;;;;;4984317;28;21025;-65
2023/07/09 00:15:58;;;;;;;4.80;4.33;;;24.10;87.40;;;;;;4972032;28;20513;-66
2023/07/09 00:18:25;;;;;;;5.00;4.37;;;24.10;88.20;;;;;;4974316;28;20576;-66
2023/07/09 00:20:52;;;;;;;5.20;4.47;;;23.90;89.10;;;;;;4971240;28;20456;-66
2023/07/09 00:23:20;;;;;;;4.80;4.40;;;23.70;90.10;;;;;;4971541;28;20457;-66
2023/07/09 00:25:47;;;;;;;4.97;4.50;;;23.50;90.60;;;;;;4970632;28;20862;-66
2023/07/09 00:28:17;;;;;;;5.37;4.83;;;23.40;91.00;;;;;;4971195;28;21125;-65
2023/07/09 00:30:44;;;;;;;6.53;4.47;;;23.20;91.40;;;;;;4971976;28;20542;-65
2023/07/09 00:33:14;;;;;;;4.83;4.43;;;23.20;91.80;;;;;;4970802;28;20471;-65
2023/07/09 00:35:46;;;;;;;4.63;4.23;;;23.10;92.10;;;;;;4971536;28;20455;-66
2023/07/09 00:38:15;;;;;;;4.70;4.30;;;23.00;92.40;;;;;;4973229;28;20451;-66
2023/07/09 00:40:48;;;;;;;4.27;3.87;;;23.00;92.80;;;;;;4982846;28;20560;-65
2023/07/09 00:43:17;;;;;;;6.07;4.13;;;23.00;93.10;;;;;;4977673;28;20538;-65
2023/07/09 00:45:45;;;;;;;5.00;4.17;;;22.90;93.50;;;;;;4971934;28;20518;-65
2023/07/09 00:48:16;;;;;;;4.07;3.77;;;22.90;93.80;;;;;;4976292;28;20446;-67
2023/07/09 00:50:50;;;;;;;4.50;4.10;;;22.90;94.10;;;;;;4976050;28;20487;-64
2023/07/09 00:53:22;;;;;;;5.80;4.73;;;22.80;94.40;;;;;;4981405;28;20536;-65
2023/07/09 00:55:53;;;;;;;4.37;3.93;;;22.70;94.90;;;;;;4972766;28;20570;-65
2023/07/09 00:58:26;;;;;;;4.73;4.23;;;22.60;95.40;;;;;;4980566;28;20454;-66
2023/07/09 01:01:01;;;;;;;4.67;4.27;;;22.50;95.90;;;;;;4977879;28;20549;-65
2023/07/09 01:03:33;;;;;;;5.60;5.10;;;22.40;96.40;;;;;;4971909;28;20450;-66
2023/07/09 01:06:00;;;;;;;6.60;4.23;;;22.40;96.90;;;;;;4971145;28;20565;-66
2023/07/09 01:08:30;;;;;;;5.77;4.60;;;22.40;97.30;;;;;;4970777;28;20451;-65
2023/07/09 01:10:58;;;;;;;5.23;4.40;;;22.30;97.60;;;;;;4970553;28;20470;-65
2023/07/09 01:13:28;;;;;;;4.93;4.40;;;22.30;97.90;;;;;;4982191;28;20886;-65
2023/07/09 01:15:56;;;;;;;4.17;3.77;;;22.20;98.40;;;;;;4970161;28;20561;-65
2023/07/09 01:18:24;;;;;;;5.20;4.70;;;22.20;98.90;;;;;;4975442;28;20549;-65
2023/07/09 01:20:53;;;;;;;4.50;4.03;;;22.10;99.20;;;;;;4974092;28;20466;-66
2023/07/09 01:23:22;;;;;;;4.07;3.70;;;22.00;99.60;;;;;;4971380;28;20491;-66
2023/07/09 01:25:54;;;;;;;4.90;4.40;;;22.00;99.90;;;;;;4989086;28;20454;-65
2023/07/09 01:28:22;;;;;;;5.33;4.10;;;22.00;99.90;;;;;;4979738;28;20943;-65
2023/07/09 01:30:53;;;;;;;4.83;4.43;;;22.00;99.90;;;;;;4974079;28;20483;-65
2023/07/09 01:33:22;;;;;;;4.87;4.40;;;22.00;99.90;;;;;;4968892;28;20462;-65
2023/07/09 01:35:49;;;;;;;4.57;4.20;;;21.90;99.90;;;;;;4969867;28;20982;-65
2023/07/09 01:38:16;;;;;;;8.10;4.80;;;21.90;99.90;;;;;;4969785;28;20545;-65
2023/07/09 01:40:46;;;;;;;4.50;4.10;;;21.90;99.90;;;;;;4970353;28;20482;-66
2023/07/09 01:43:13;;;;;;;5.37;4.57;;;21.90;99.90;;;;;;4970015;28;20458;-65
2023/07/09 01:45:40;;;;;;;5.60;4.63;;;21.80;99.90;;;;;;4970378;28;20790;-65
2023/07/09 01:48:15;;;;;;;4.53;4.13;;;21.80;99.90;;;;;;4969304;28;20876;-65
2023/07/09 01:50:43;;;;;;;6.17;5.10;;;21.80;99.90;;;;;;4971659;28;20470;-66
2023/07/09 01:53:11;;;;;;;5.10;4.60;;;21.80;99.90;;;;;;4977155;28;20458;-65
2023/07/09 01:55:38;;;;;;;5.13;4.63;;;21.80;99.90;;;;;;4989182;28;20446;-65
2023/07/09 01:58:08;;;;;;;5.00;4.53;;;21.70;99.90;;;;;;4984092;28;20458;-66
2023/07/09 02:00:35;;;;;;;5.70;5.20;;;21.70;99.90;;;;;;4992879;28;20484;-66
2023/07/09 02:03:02;;;;;;;5.43;4.53;;;21.70;99.90;;;;;;4981184;28;20461;-65
2023/07/09 02:05:32;;;;;;;5.13;4.67;;;21.70;99.90;;;;;;4973349;28;21179;-65
2023/07/09 02:08:00;;;;;;;5.03;4.53;;;21.60;99.90;;;;;;4975112;28;20459;-64
2023/07/09 02:10:27;;;;;;;5.20;4.70;;;21.60;99.90;;;;;;4974308;28;20490;-65
2023/07/09 02:12:54;;;;;;;6.07;5.10;;;21.60;99.90;;;;;;4974318;28;20459;-65
2023/07/09 02:15:22;;;;;;;5.47;4.90;;;21.60;99.90;;;;;;4974653;28;20493;-65
2023/07/09 02:17:49;;;;;;;6.07;4.53;;;21.60;99.90;;;;;;4973992;28;20565;-65
2023/07/09 02:20:16;;;;;;;6.30;5.07;;;21.60;99.90;;;;;;4974397;28;20573;-66
2023/07/09 02:22:45;;;;;;;5.67;4.80;;;21.50;99.90;;;;;;4977073;28;20459;-65
2023/07/09 02:25:12;;;;;;;7.33;4.83;;;21.50;99.90;;;;;;4973422;28;20902;-65
2023/07/09 02:27:39;;;;;;;6.80;4.90;;;21.40;99.90;;;;;;4974156;28;20514;-65
2023/07/09 02:30:08;;;;;;;5.73;5.17;;;21.40;99.90;;;;;;4980370;28;20529;-66
2023/07/09 02:32:36;;;;;;;5.30;4.80;;;21.30;99.90;;;;;;4976746;28;20458;-65
2023/07/09 02:35:04;;;;;;;5.33;4.83;;;21.30;99.90;;;;;;4973639;28;20541;-66
2023/07/09 02:37:31;;;;;;;5.13;4.73;;;21.30;99.90;;;;;;4979492;28;20553;-65
2023/07/09 02:39:58;;;;;;;5.27;4.77;;;21.30;99.90;;;;;;4981423;28;20486;-65
2023/07/09 02:42:25;;;;;;;5.30;4.80;;;21.30;99.90;;;;;;4972662;28;20504;-65
2023/07/09 02:44:52;;;;;;;4.80;4.40;;;21.30;99.90;;;;;;4973761;28;20537;-65
2023/07/09 02:47:19;;;;;;;6.20;5.27;;;21.20;99.90;;;;;;4973299;28;20466;-65
2023/07/09 02:49:48;;;;;;;5.30;4.80;;;21.20;99.90;;;;;;4974335;28;20466;-65
2023/07/09 02:52:15;;;;;;;6.10;5.30;;;21.20;99.90;;;;;;4980835;28;20485;-65
2023/07/09 02:54:42;;;;;;;6.27;5.07;;;21.20;99.90;;;;;;4973983;28;20466;-68
2023/07/09 02:57:09;;;;;;;6.00;5.40;;;21.10;99.90;;;;;;4974167;28;20580;-68
2023/07/09 02:59:37;;;;;;;5.73;5.10;;;21.10;99.90;;;;;;4975678;28;20569;-68
2023/07/09 03:02:04;;;;;;;6.70;5.37;;;21.10;99.90;;;;;;4971570;28;20461;-68
2023/07/09 03:04:32;;;;;;;5.90;5.30;;;21.00;99.90;;;;;;4973791;28;20462;-68
2023/07/09 03:07:00;;;;;;;5.63;5.07;;;21.00;99.90;;;;;;4973805;28;20482;-67
2023/07/09 03:09:28;;;;;;;5.43;4.93;;;20.90;99.90;;;;;;4978598;28;20466;-67
2023/07/09 03:11:55;;;;;;;5.20;4.70;;;20.90;99.90;;;;;;4975862;28;20493;-68
2023/07/09 03:14:22;;;;;;;5.33;4.70;;;20.80;99.90;;;;;;4974314;28;20469;-68
2023/07/09 03:16:49;;;;;;;4.40;4.00;;;20.80;99.90;;;;;;4972073;28;20473;-67
2023/07/09 03:19:16;;;;;;;5.23;4.73;;;20.80;99.90;;;;;;4991526;28;20584;-67
2023/07/09 03:21:44;;;;;;;5.07;4.57;;;20.70;99.90;;;;;;4984591;28;20491;-67
2023/07/09 03:24:18;;;;;;;5.10;4.60;;;20.70;99.90;;;;;;4973061;28;20634;-67
2023/07/09 03:26:46;;;;;;;6.43;4.97;;;20.60;99.90;;;;;;4984369;28;20560;-67
2023/07/09 03:29:13;;;;;;;4.80;4.27;;;20.60;99.90;;;;;;4972063;28;20445;-67
2023/07/09 03:31:40;;;;;;;5.43;4.70;;;20.50;99.90;;;;;;4972190;28;21038;-67
2023/07/09 03:34:07;;;;;;;4.93;4.53;;;20.40;99.90;;;;;;4972142;28;20580;-67
2023/07/09 03:36:37;;;;;;;7.03;5.10;;;20.40;99.90;;;;;;4974417;28;20570;-67
2023/07/09 03:39:04;;;;;;;7.57;4.80;;;20.30;99.90;;;;;;4990946;28;20496;-67
2023/07/09 03:41:32;;;;;;;4.60;4.20;;;20.30;99.90;;;;;;4971934;28;20958;-67
2023/07/09 03:43:59;;;;;;;5.07;4.57;;;20.30;99.90;;;;;;4970711;28;20495;-67
2023/07/09 03:46:26;;;;;;;6.20;4.63;;;20.20;99.90;;;;;;4971738;28;21070;-67
2023/07/09 03:48:53;;;;;;;4.97;4.47;;;20.20;99.90;;;;;;4987324;28;20465;-68
2023/07/09 03:51:20;;;;;;;6.77;4.73;;;20.10;99.90;;;;;;4972045;28;20465;-68
2023/07/09 03:53:47;;;;;;;5.20;4.70;;;20.10;99.90;;;;;;4974814;28;20830;-68
2023/07/09 03:56:14;;;;;;;6.30;4.57;;;20.10;99.90;;;;;;4981887;28;20567;-68
2023/07/09 03:58:42;;;;;;;4.83;4.43;;;20.00;99.90;;;;;;4973074;28;20546;-67
2023/07/09 04:01:09;;;;;;;5.03;4.47;;;20.00;99.90;;;;;;4973017;28;20500;-68
2023/07/09 04:03:37;;;;;;;4.73;4.33;;;20.00;99.90;;;;;;4973534;28;21034;-67
2023/07/09 04:06:04;;;;;;;5.23;4.63;;;19.90;99.90;;;;;;4971000;28;20553;-67
2023/07/09 04:08:31;;;;;;;4.50;4.10;;;19.90;99.90;;;;;;4972182;28;20480;-66
2023/07/09 04:11:03;;;;;;;5.53;5.03;;;19.80;99.90;;;;;;4969401;28;20474;-66
2023/07/09 04:13:30;;;;;;;4.73;4.33;;;19.80;99.90;;;;;;4972417;28;20514;-67
2023/07/09 04:15:58;;;;;;;5.37;4.67;;;19.80;99.90;;;;;;4971738;28;20882;-67
2023/07/09 04:18:26;;;;;;;5.80;4.53;;;19.80;99.90;;;;;;4971281;28;20472;-67
2023/07/09 04:20:53;;;;;;;4.57;4.17;;;19.80;99.90;;;;;;4971826;28;20883;-67
2023/07/09 04:23:21;;;;;;;5.03;4.40;;;19.80;99.90;;;;;;4973374;28;20981;-67
2023/07/09 04:25:48;;;;;;;6.50;4.77;;;19.80;99.90;;;;;;4970679;28;20480;-67
2023/07/09 04:28:15;;;;;;;4.83;4.40;;;19.80;99.90;;;;;;4972503;28;20545;-66
2023/07/09 04:30:48;;;;;;;4.73;4.33;;;19.90;99.90;;;;;;4979223;28;20554;-67
2023/07/09 04:33:18;;;;;;;5.10;4.60;;;19.90;99.90;;;;;;4973160;28;20525;-67
2023/07/09 04:35:45;;;;;;;5.53;4.67;;;19.90;99.90;;;;;;4979513;28;20842;-68
2023/07/09 04:38:13;;;;;;;4.90;4.40;;;19.90;99.90;;;;;;4972975;28;20450;-68
2023/07/09 04:40:40;;;;;;;4.67;4.30;;;20.00;99.90;;;;;;4970453;28;20553;-67
2023/07/09 04:43:07;;;;;;;5.17;4.77;;;20.00;99.90;;;;;;4971772;28;20465;-67
2023/07/09 04:45:34;;;;;;;5.33;4.23;;;20.10;99.90;;;;;;4970724;28;20521;-67
2023/07/09 04:48:02;;;;;;;4.40;4.07;;;20.10;99.90;;;;;;4977105;28;20900;-67
2023/07/09 04:50:30;;;;;;;5.20;4.53;;;20.20;99.90;;;;;;4975520;28;20995;-67
2023/07/09 04:52:57;;;;;;;6.67;5.40;;;20.20;99.90;;;;;;4976986;28;20972;-67
2023/07/09 04:55:24;;;;;;;5.37;4.90;;;20.20;99.90;;;;;;4971197;28;20815;-67
2023/07/09 04:57:51;;;;;;;5.27;4.77;;;20.20;99.90;;;;;;4970608;28;20516;-67
2023/07/09 05:00:19;;;;;;;5.90;4.80;;;20.30;99.90;;;;;;4971435;28;20532;-67
2023/07/09 05:02:46;;;;;;;5.60;4.87;;;20.40;99.90;;;;;;4971455;28;20465;-67
2023/07/09 05:05:14;;;;;;;5.63;4.30;;;20.40;99.90;;;;;;4977478;28;20458;-67
2023/07/09 05:07:42;;;;;;;5.50;4.27;;;20.40;99.90;;;;;;4974017;28;20465;-67
2023/07/09 05:10:10;;;;;;;5.30;4.70;;;20.50;99.90;;;;;;4977758;28;21087;-67
2023/07/09 05:12:50;;;;;;;6.30;5.17;;;20.60;99.90;;;;;;4970549;28;20466;-68
2023/07/09 05:15:18;;;;;;;5.17;4.67;;;20.60;99.90;;;;;;4972230;28;20460;-67
2023/07/09 05:17:46;;;;;;;6.30;4.73;;;20.70;99.90;;;;;;4969532;28;20462;-69
2023/07/09 05:20:14;;;;;;;5.13;4.63;;;20.70;99.90;;;;;;4976210;28;21037;-69
2023/07/09 05:22:43;;;;;;;5.10;4.70;;;20.80;99.90;;;;;;4972004;28;20482;-69
2023/07/09 05:25:11;;;;;;;5.20;4.73;;;20.90;99.90;;;;;;4970469;28;20481;-70
2023/07/09 05:27:38;;;;;;;5.33;4.83;;;20.90;99.90;;;;;;4970914;28;20458;-69
2023/07/09 05:30:07;;;;;;;4.97;4.57;;;21.00;99.90;;;;;;4970720;28;20484;-70
2023/07/09 05:32:38;;;;;;;5.27;4.53;;;21.10;99.90;;;;;;4980857;28;20579;-70
2023/07/09 05:35:05;;;;;;;4.80;4.40;;;21.20;99.90;;;;;;4973729;28;20586;-67
2023/07/09 05:37:33;;;;;;;5.80;5.20;;;21.30;99.90;;;;;;4976858;28;20460;-68
2023/07/09 05:40:02;;;;;;;4.83;4.43;;;21.40;99.90;;;;;;4974973;28;20472;-68
2023/07/09 05:42:29;;;;;;;5.83;5.27;;;21.50;99.90;;;;;;4973627;28;20455;-66
2023/07/09 05:44:56;;;;;;;5.33;4.87;;;21.60;99.90;;;;;;4975127;28;20493;-67
2023/07/09 05:47:23;;;;;;;4.90;4.50;;;21.70;99.90;;;;;;4975635;28;20489;-68
2023/07/09 05:49:50;;;;;;;5.50;5.00;;;21.70;99.90;;;;;;4974058;28;20481;-66
2023/07/09 05:52:17;;;;;;;4.90;4.50;;;21.80;99.90;;;;;;4975775;28;20529;-68
2023/07/09 05:54:44;;;;;;;4.47;4.07;;;21.90;99.90;;;;;;4974555;28;20443;-68
2023/07/09 05:57:13;;;;;;;5.53;5.00;;;22.10;99.90;;;;;;4974430;28;20472;-66
2023/07/09 05:59:40;;;;;;;4.93;4.53;;;22.20;99.90;;;;;;4975615;28;20798;-67
2023/07/09 06:02:11;;;;;;;5.20;4.70;;;22.20;99.90;;;;;;4974562;28;20474;-67
2023/07/09 06:04:38;;;;;;;5.73;4.70;;;22.30;99.90;;;;;;4976688;28;20959;-67
2023/07/09 06:07:05;;;;;;;5.23;4.73;;;22.70;99.90;;;;;;4974603;28;20557;-67
2023/07/09 06:09:33;;;;;;;5.00;4.50;;;22.50;99.90;;;;;;4975211;28;20497;-67
2023/07/09 06:12:00;;;;;;;7.00;4.83;;;22.70;99.90;;;;;;4974700;28;21025;-67
2023/07/09 06:14:29;;;;;;;5.73;5.23;;;22.70;99.90;;;;;;4974838;28;20459;-67
2023/07/09 06:16:56;;;;;;;5.97;4.83;;;22.80;99.90;;;;;;4976399;28;20470;-65
2023/07/09 06:19:24;;;;;;;4.97;4.43;;;22.90;99.90;;;;;;4978170;28;20805;-64
2023/07/09 06:21:52;;;;;;;5.50;5.00;;;23.00;99.90;;;;;;4971970;28;21012;-66
2023/07/09 06:24:19;;;;;;;4.90;4.50;;;23.10;99.90;;;;;;4975290;28;20463;-65
2023/07/09 06:26:46;;;;;;;6.30;5.10;;;23.20;99.90;;;;;;4972188;28;20513;-65
2023/07/09 06:29:13;;;;;;;6.50;5.10;;;23.30;99.90;;;;;;4974157;28;20462;-66
2023/07/09 06:31:42;;;;;;;5.80;4.60;;;23.50;99.90;;;;;;4972194;28;20819;-66
2023/07/09 06:34:10;;;;;;;5.33;4.80;;;23.60;99.90;;;;;;4972610;28;20463;-66
2023/07/09 06:36:37;;;;;;;5.33;4.40;;;23.80;99.90;;;;;;4974686;28;20473;-66
2023/07/09 06:39:05;;;;;;;5.80;5.30;;;23.90;99.90;;;;;;4974863;28;20491;-65
2023/07/09 06:41:38;;;;;;;5.40;4.90;;;24.00;99.90;;;;;;4974915;28;20490;-67
2023/07/09 06:44:06;;;;;;;5.37;4.87;;;24.10;99.90;;;;;;4974946;28;20544;-67
2023/07/09 06:46:33;;;;;;;5.17;4.77;;;24.20;99.90;;;;;;4972121;28;20486;-66
2023/07/09 06:49:02;;;;;;;5.60;5.10;;;24.30;99.90;;;;;;4973923;28;21210;-67
2023/07/09 06:51:29;;;;;;;4.80;4.40;;;24.50;99.90;;;;;;4975260;28;20457;-66
2023/07/09 06:53:57;;;;;;;4.93;4.43;;;24.70;99.90;;;;;;4972510;28;20914;-66
2023/07/09 06:56:25;;;;;;;5.63;5.13;;;24.80;99.90;;;;;;4973245;28;21017;-67
2023/07/09 06:58:52;;;;;;;6.17;5.07;;;25.00;99.90;;;;;;4977195;28;20465;-67
2023/07/09 07:01:19;;;;;;;5.23;4.77;;;25.10;99.90;;;;;;4972656;28;20508;-66
2023/07/09 07:03:46;;;;;;;6.03;5.43;;;25.20;99.90;;;;;;4973333;28;20459;-67
2023/07/09 07:06:16;;;;;;;6.03;5.43;;;25.30;99.90;;;;;;4975780;28;20482;-67
2023/07/09 07:08:43;;;;;;;5.07;4.67;;;25.40;99.90;;;;;;4977754;28;20466;-67
2023/07/09 07:11:10;;;;;;;5.57;5.17;;;25.60;99.90;;;;;;4973498;28;20577;-67
2023/07/09 07:13:38;;;;;;;5.73;5.23;;;25.80;99.90;;;;;;4973234;28;20462;-66
2023/07/09 07:16:08;;;;;;;5.07;4.50;;;25.90;99.90;;;;;;4972501;28;20478;-69
2023/07/09 07:18:35;;;;;;;6.00;5.10;;;26.00;99.90;;;;;;4972660;28;20807;-66
2023/07/09 07:21:03;;;;;;;5.60;5.10;;;26.10;99.90;;;;;;4973969;28;20497;-67
2023/07/09 07:23:32;;;;;;;5.50;5.00;;;26.30;99.90;;;;;;4971005;28;20473;-66
2023/07/09 07:25:59;;;;;;;5.63;5.13;;;26.40;99.90;;;;;;4969685;28;20600;-66
2023/07/09 07:28:26;;;;;;;5.20;4.80;;;26.50;99.90;;;;;;4963284;28;20470;-66
2023/07/09 07:31:01;;;;;;;6.20;4.57;;;26.60;99.90;;;;;;4960493;28;20611;-65
2023/07/09 07:33:28;;;;;;;5.40;4.90;;;26.70;99.90;;;;;;4962304;28;20469;-65
2023/07/09 07:35:55;;;;;;;5.57;4.97;;;26.90;99.90;;;;;;4969639;28;20479;-65
2023/07/09 07:38:22;;;;;;;5.30;4.90;;;27.00;99.90;;;;;;4968255;28;20556;-66
2023/07/09 07:40:50;;;;;;;5.30;4.80;;;27.20;99.90;;;;;;4966506;28;20495;-65
2023/07/09 07:43:17;;;;;;;5.77;5.23;;;27.30;99.90;;;;;;4970121;28;20455;-66
2023/07/09 07:45:45;;;;;;;5.20;4.70;;;27.70;99.90;;;;;;4972613;28;20544;-66
2023/07/09 07:48:13;;;;;;;5.27;4.77;;;28.10;99.90;;;;;;4968796;28;20463;-66
2023/07/09 07:50:41;;;;;;;5.37;4.87;;;28.40;99.90;;;;;;4969956;28;20467;-67
2023/07/09 07:53:09;;;;;;;5.10;4.70;;;28.50;99.90;;;;;;4974263;28;20458;-71
2023/07/09 07:55:37;;;;;;;5.07;4.57;;;28.50;99.90;;;;;;4969221;28;20482;-66
2023/07/09 07:58:05;;;;;;;5.53;5.03;;;28.40;99.90;;;;;;4970835;28;20463;-65
2023/07/09 08:00:32;;;;;;;5.97;4.70;;;28.50;99.90;;;;;;4966366;28;20557;-66
2023/07/09 08:03:00;;;;;;;6.40;5.47;;;28.50;99.90;;;;;;4956454;28;20478;-67
2023/07/09 08:05:27;;;;;;;6.60;5.13;;;28.70;99.90;;;;;;4962557;28;20474;-65
2023/07/09 08:07:54;;;;;;;5.90;5.40;;;28.90;99.90;;;;;;4964754;28;20532;-65
2023/07/09 08:10:21;;;;;;;5.80;5.20;;;29.00;99.90;;;;;;4960168;28;20517;-66
2023/07/09 08:12:49;;;;;;;4.70;4.20;;;28.90;99.90;;;;;;4962025;28;20481;-66
2023/07/09 08:15:18;;;;;;;5.60;5.10;;;29.00;99.90;;;;;;4958518;28;20492;-66
2023/07/09 08:17:45;;;;;;;4.97;4.57;;;29.10;99.80;;;;;;4961467;28;20544;-66
2023/07/09 08:20:12;;;;;;;5.13;4.60;;;29.20;99.70;;;;;;4964498;28;20472;-65
2023/07/09 08:22:39;;;;;;;4.40;4.00;;;29.40;99.20;;;;;;4961101;28;20490;-67
2023/07/09 08:25:08;;;;;;;6.20;4.87;;;29.50;99.30;;;;;;4964182;28;20489;-66
2023/07/09 08:27:35;;;;;;;4.60;4.10;;;29.70;98.40;;;;;;4960256;28;20498;-66
2023/07/09 08:30:02;;;;;;;4.87;4.00;;;29.90;98.60;;;;;;4958954;28;20464;-65
2023/07/09 08:32:30;;;;;;;5.23;4.80;;;30.10;96.30;;;;;;4961402;28;22448;-66
2023/07/09 08:34:57;;;;;;;5.40;4.33;;;30.10;96.60;;;;;;4963175;28;20482;-66
2023/07/09 08:37:24;;;;;;;4.50;4.10;;;30.20;95.70;;;;;;4974361;28;20497;-65
2023/07/09 08:39:52;;;;;;;4.60;4.10;;;30.10;95.40;;;;;;4973917;28;20466;-65
2023/07/09 08:42:25;;;;;;;4.47;4.07;;;30.00;95.30;;;;;;4967012;28;20619;-66
2023/07/09 08:45:08;;;;;;;4.40;4.10;;;30.00;94.80;;;;;;4959470;28;21419;-65
2023/07/09 08:47:46;;;;;;;4.70;4.30;;;30.20;93.80;;;;;;4965298;28;20529;-65
2023/07/09 08:50:16;;;;;;;4.83;4.07;;;30.40;94.70;;;;;;4955416;28;20496;-65
2023/07/09 08:52:46;;;;;;;4.80;4.30;;;30.40;93.60;;;;;;4961390;28;20532;-65
2023/07/09 08:55:17;;;;;;;4.30;4.00;;;30.50;93.20;;;;;;4962263;28;20491;-66
2023/07/09 08:57:47;;;;;;;4.73;4.30;;;30.60;93.90;;;;;;4960224;28;20568;-66
2023/07/09 09:00:17;;;;;;;5.20;4.17;;;30.70;92.80;;;;;;4962802;28;20871;-65
2023/07/09 09:02:52;;;;;;;4.83;4.10;;;30.80;92.60;;;;;;4958749;28;20505;-65
2023/07/09 09:05:21;;;;;;;4.33;3.93;;;30.90;92.10;;;;;;4963857;28;20473;-69
2023/07/09 09:07:53;;;;;;;5.10;4.60;;;31.30;91.80;;;;;;4967660;28;21514;-65
2023/07/09 09:10:29;;;;;;;5.30;4.13;;;31.40;92.20;;;;;;4966427;28;20459;-64
2023/07/09 09:13:11;;;;;;;4.40;4.00;;;31.50;90.50;;;;;;4969267;28;20464;-65
2023/07/09 09:15:40;;;;;;;7.43;4.50;;;31.40;90.20;;;;;;4971704;28;20518;-64
2023/07/09 09:18:21;;;;;;;4.50;4.10;;;31.50;90.20;;;;;;4967167;28;20450;-65
2023/07/09 09:20:56;;;;;;;4.87;4.17;;;31.80;90.50;;;;;;4967565;28;20878;-65
2023/07/09 09:23:26;;;;;;;4.77;4.37;;;32.00;90.50;;;;;;4964440;28;20546;-65
2023/07/09 09:25:57;;;;;;;5.70;3.90;;;32.10;89.50;;;;;;4965416;28;20478;-65
2023/07/09 09:28:26;;;;;;;4.30;4.00;;;32.20;87.70;;;;;;4957164;28;20486;-65
2023/07/09 09:30:53;;;;;;;5.23;4.73;;;32.30;85.50;;;;;;4962539;28;20554;-66
2023/07/09 09:33:21;;;;;;;4.70;4.30;;;32.40;87.20;;;;;;4967544;28;20458;-65
2023/07/09 09:35:48;;;;;;;4.13;3.83;;;32.50;85.90;;;;;;4969894;28;20568;-65
2023/07/09 09:38:18;;;;;;;4.13;3.83;;;32.40;85.20;;;;;;4965911;28;20985;-65
2023/07/09 09:40:45;;;;;;;4.43;4.00;;;32.50;83.30;;;;;;4971946;28;20473;-65
2023/07/09 09:43:14;;;;;;;4.10;3.70;;;32.60;81.20;;;;;;4971678;28;20886;-63
2023/07/09 09:45:45;;;;;;;4.10;3.80;;;32.50;79.90;;;;;;4969177;28;21330;-63
2023/07/09 09:48:16;;;;;;;3.97;3.63;;;32.50;79.80;;;;;;4967697;28;20548;-65
2023/07/09 09:50:46;;;;;;;4.63;4.23;;;32.60;80.70;;;;;;4969828;28;20476;-65
2023/07/09 09:53:21;;;;;;;6.50;4.30;;;32.80;79.40;;;;;;4970266;28;20962;-66
2023/07/09 09:55:49;;;;;;;4.30;4.00;;;33.00;76.70;;;;;;4967219;28;20557;-65
2023/07/09 09:58:18;;;;;;;3.77;3.50;;;33.20;76.70;;;;;;4974790;28;20472;-66
2023/07/09 10:00:51;;;;;;;4.93;3.93;;;33.40;74.50;;;;;;4971019;28;20464;-65
2023/07/09 10:03:19;;;;;;;4.57;4.17;;;33.70;73.80;;;;;;4969451;28;20529;-65
2023/07/09 10:05:53;;;;;;;4.73;4.20;;;34.00;74.10;;;;;;4968746;28;20482;-80
2023/07/09 10:08:31;;;;;;;5.10;3.80;;;34.20;71.80;;;;;;4975318;28;21327;-80
2023/07/09 10:11:07;;;;;;;5.00;4.40;;;34.50;72.20;;;;;;4968356;28;20501;-65
2023/07/09 10:13:39;;;;;;;4.47;4.07;;;34.80;71.10;;;;;;4969087;28;20520;-65
2023/07/09 10:16:09;;;;;;;5.00;4.50;;;35.10;71.10;;;;;;4964499;28;20647;-65
2023/07/09 10:18:50;;;;;;;4.30;4.00;;;35.50;68.90;;;;;;4965280;28;20459;-66
2023/07/09 10:21:31;;;;;;;4.30;3.90;;;36.10;67.30;;;;;;4971046;28;20462;-65
2023/07/09 10:24:12;;;;;;;4.00;3.70;;;36.40;63.60;;;;;;4972855;28;20459;-66
2023/07/09 10:26:45;;;;;;;3.80;3.50;;;36.40;61.00;;;;;;4973268;28;20466;-66
2023/07/09 10:29:31;;;;;;;3.57;3.33;;;36.50;60.70;;;;;;4970789;28;20465;-66
2023/07/09 10:32:09;;;;;;;3.80;3.40;;;36.80;58.00;;;;;;4967884;28;20959;-65
2023/07/09 10:34:48;;;;;;;4.37;3.97;;;37.10;58.10;;;;;;4973623;28;20875;-67
2023/07/09 10:37:32;;;;;;;4.23;3.93;;;37.40;56.60;;;;;;4972048;28;20454;-65
2023/07/09 10:40:03;;;;;;;4.43;3.77;;;37.40;56.40;;;;;;4972222;28;20463;-65
2023/07/09 10:42:35;;;;;;;4.80;3.73;;;37.80;56.30;;;;;;4965970;28;20994;-65
2023/07/09 10:45:06;;;;;;;4.23;3.93;;;38.20;56.80;;;;;;4969006;28;20467;-65
2023/07/09 10:47:38;;;;;;;3.70;3.40;;;38.60;55.00;;;;;;4970760;28;20469;-66
2023/07/09 10:50:13;;;;;;;4.43;3.87;;;38.50;52.00;;;;;;4967687;28;20889;-66
2023/07/09 10:52:47;;;;;;;4.53;3.40;;;38.10;53.10;;;;;;4965902;28;20564;-66
2023/07/09 10:55:18;;;;;;;3.87;3.37;;;37.50;54.20;;;;;;4963043;28;20475;-67
2023/07/09 10:57:49;;;;;;;4.07;3.67;;;37.50;54.00;;;;;;4968490;28;20489;-66
2023/07/09 11:00:20;;;;;;;3.63;3.33;;;37.70;51.20;;;;;;4967736;28;20466;-66
2023/07/09 11:02:51;;;;;;;3.80;3.27;;;37.70;51.10;;;;;;4969468;28;20564;-65
2023/07/09 11:05:19;;;;;;;4.23;3.83;;;37.40;51.70;;;;;;4970521;28;20478;-66
2023/07/09 11:07:56;;;;;;;4.10;3.70;;;37.20;52.30;;;;;;4972474;28;20463;-65
2023/07/09 11:10:29;;;;;;;4.13;3.63;;;37.50;52.10;;;;;;4972725;28;20509;-66
2023/07/09 11:13:06;;;;;;;3.60;3.30;;;37.50;50.30;;;;;;4970520;28;20538;-66
2023/07/09 11:15:37;;;;;;;4.13;3.80;;;37.80;50.20;;;;;;4975719;28;21006;-66
2023/07/09 11:18:07;;;;;;;3.80;3.50;;;37.90;48.70;;;;;;4971897;28;20486;-66
2023/07/09 11:20:37;;;;;;;4.03;3.63;;;38.20;46.50;;;;;;4972336;28;20461;-65
2023/07/09 11:23:07;;;;;;;4.53;3.60;;;38.10;45.80;;;;;;4968688;28;20679;-64
2023/07/09 11:25:43;;;;;;;4.17;3.77;;;38.20;47.30;;;;;;4971258;28;20581;-65
2023/07/09 11:28:11;;;;;;;3.80;3.40;;;38.50;47.80;;;;;;4973289;28;20486;-64
2023/07/09 11:30:49;;;;;;;4.60;4.20;;;38.80;48.10;;;;;;4970661;28;20792;-64
2023/07/09 11:33:19;;;;;;;3.90;3.60;;;39.10;47.00;;;;;;4971477;28;20541;-65
2023/07/09 11:35:49;;;;;;;3.50;3.30;;;39.20;47.50;;;;;;4970691;28;20553;-65
2023/07/09 11:38:20;;;;;;;3.93;3.47;;;39.30;46.70;;;;;;4969884;28;20966;-67
2023/07/09 11:40:53;;;;;;;4.60;3.60;;;39.40;46.50;;;;;;4968227;28;20463;-66
2023/07/09 11:43:29;;;;;;;4.13;3.73;;;39.30;47.10;;;;;;4970663;28;20490;-66
2023/07/09 11:46:00;;;;;;;4.90;4.40;;;39.00;47.20;;;;;;4971467;28;20494;-65
2023/07/09 11:48:30;;;;;;;3.90;3.60;;;38.70;45.80;;;;;;4973006;28;20533;-64
2023/07/09 11:51:00;;;;;;;4.50;4.00;;;38.80;46.60;;;;;;4970009;28;20550;-65
2023/07/09 11:53:34;;;;;;;4.23;3.93;;;39.20;45.30;;;;;;4968148;28;20458;-65
2023/07/09 11:56:02;;;;;;;4.20;3.80;;;39.60;44.90;;;;;;4970582;28;20486;-66
2023/07/09 11:58:29;;;;;;;3.90;3.60;;;40.00;44.90;;;;;;4971988;28;21014;-65
2023/07/09 12:00:59;;;;;;;3.90;3.50;;;39.70;44.60;;;;;;4969636;28;20600;-67
2023/07/09 12:03:29;;;;;;;4.00;3.60;;;40.20;44.90;;;;;;4970057;28;20577;-67
2023/07/09 12:06:00;;;;;;;4.30;3.80;;;40.50;44.80;;;;;;4968755;28;20477;-67
2023/07/09 12:08:31;;;;;;;5.83;4.20;;;40.40;45.30;;;;;;4967254;28;21206;-65
2023/07/09 12:10:58;;;;;;;4.17;3.80;;;41.10;41.40;;;;;;4971733;28;20465;-66
2023/07/09 12:13:25;;;;;;;4.40;4.00;;;41.40;41.50;;;;;;4964744;28;20552;-66
2023/07/09 12:15:53;;;;;;;5.10;3.80;;;41.70;40.90;;;;;;4963444;28;22469;-66
2023/07/09 12:18:20;;;;;;;5.10;4.50;;;42.00;40.30;;;;;;4967010;28;20605;-65
2023/07/09 12:20:51;;;;;;;3.83;3.43;;;42.40;41.80;;;;;;4961911;28;20461;-65
2023/07/09 12:23:26;;;;;;;3.90;3.50;;;41.90;40.50;;;;;;4956612;28;21100;-65
2023/07/09 12:25:55;;;;;;;4.13;3.83;;;42.70;39.90;;;;;;4964370;28;20477;-65
2023/07/09 12:28:23;;;;;;;4.60;4.20;;;42.90;40.10;;;;;;4956523;28;20469;-66
2023/07/09 12:30:52;;;;;;;4.50;4.10;;;43.10;40.10;;;;;;4958145;28;20460;-66
2023/07/09 12:33:21;;;;;;;4.80;4.40;;;43.30;39.10;;;;;;4964882;28;20458;-66
2023/07/09 12:35:52;;;;;;;4.67;4.17;;;43.10;39.60;;;;;;4961976;28;20469;-66
2023/07/09 12:38:21;;;;;;;4.73;4.30;;;42.80;38.80;;;;;;4967731;28;20553;-66
2023/07/09 12:40:49;;;;;;;5.03;3.93;;;43.10;38.60;;;;;;4969400;28;21157;-66
2023/07/09 12:43:22;;;;;;;4.60;3.73;;;42.90;38.20;;;;;;4967481;28;20490;-65
2023/07/09 12:45:49;;;;;;;5.20;4.70;;;42.80;37.80;;;;;;4975764;28;20569;-67
2023/07/09 12:48:17;;;;;;;4.60;4.20;;;42.90;38.60;;;;;;4967880;28;20956;-68
2023/07/09 12:50:51;;;;;;;4.43;4.00;;;42.80;38.10;;;;;;4965726;28;20827;-68
2023/07/09 12:53:21;;;;;;;5.10;4.60;;;42.90;37.00;;;;;;4966910;28;20462;-65
2023/07/09 12:55:50;;;;;;;4.30;3.87;;;42.70;37.40;;;;;;4966520;28;20506;-66
2023/07/09 12:58:21;;;;;;;5.50;4.00;;;43.20;37.00;;;;;;4969436;28;20501;-65